createdAt,value
2019-02-04T00:01:59.595Z,101255.08
2019-02-04T00:04:45.172Z,101257.14
2019-02-04T00:07:30.608Z,101255.64
2019-02-04T00:10:15.955Z,101257.11
2019-02-04T00:13:01.303Z,101257.11
2019-02-04T00:15:46.764Z,101252.27
2019-02-04T00:18:34.604Z,101249.64
2019-02-04T00:21:20.193Z,101247.10
2019-02-04T00:24:05.970Z,101244.23
2019-02-04T00:26:52.012Z,101239.11
2019-02-04T00:29:37.746Z,101239.11
2019-02-04T00:32:23.091Z,101240.42
2019-02-04T00:35:08.691Z,101239.63
2019-02-04T00:37:54.545Z,101246.94
2019-02-04T00:40:40.478Z,101246.94
2019-02-04T00:43:26.028Z,101250.52
2019-02-04T00:46:11.449Z,101252.58
2019-02-04T00:48:56.845Z,101254.05
2019-02-04T00:51:42.909Z,101245.95
2019-02-04T00:54:28.241Z,101247.69
2019-02-04T00:57:14.212Z,101250.63
2019-02-04T00:59:59.577Z,101257.37
2019-02-04T01:02:45.009Z,101257.37
2019-02-04T01:05:30.480Z,101264.26
2019-02-04T01:08:16.401Z,101265.56
2019-02-04T01:11:01.936Z,101272.41
2019-02-04T01:13:47.770Z,101272.41
2019-02-04T01:16:33.127Z,101274.31
2019-02-04T01:19:18.723Z,101283.82
2019-02-04T01:22:04.879Z,101288.34
2019-02-04T01:24:50.236Z,101288.34
2019-02-04T01:27:35.547Z,101285.25
2019-02-04T01:30:21.233Z,101286.45
2019-02-04T01:33:06.954Z,101298.44
2019-02-04T01:35:52.277Z,101298.44
2019-02-04T01:38:37.758Z,101301.95
2019-02-04T01:41:23.158Z,101298.84
2019-02-04T01:44:08.637Z,101298.84
2019-02-04T01:46:54.189Z,101305.91
2019-02-04T01:49:39.461Z,101305.91
2019-02-04T01:52:24.866Z,101307.66
2019-02-04T01:55:10.940Z,101312.03
2019-02-04T01:57:56.709Z,101315.83
2019-02-04T02:00:42.124Z,101322.27
2019-02-04T02:03:27.765Z,101325.30
2019-02-04T02:06:13.624Z,101329.42
2019-02-04T02:08:59.694Z,101327.05
2019-02-04T02:11:45.070Z,101327.05
2019-02-04T02:14:30.552Z,101332.44
2019-02-04T02:17:26.035Z,101329.81
2019-02-04T02:20:05.282Z,101324.97
2019-02-04T02:22:51.097Z,101324.23
2019-02-04T02:25:36.459Z,101332.67
2019-02-04T02:28:22.390Z,101334.80
2019-02-04T02:31:07.774Z,101325.61
2019-02-04T02:33:53.106Z,101322.92
2019-02-04T02:36:38.689Z,101329.98
2019-02-04T02:39:24.017Z,101326.39
2019-02-04T02:42:09.970Z,101326.39
2019-02-04T02:44:56.322Z,101328.30
2019-02-04T02:47:41.762Z,101330.36
2019-02-04T02:50:27.299Z,101326.71
2019-02-04T02:53:12.635Z,101326.71
2019-02-04T02:55:58.565Z,101320.98
2019-02-04T02:58:43.946Z,101322.66
2019-02-04T03:01:29.294Z,101321.80
2019-02-04T03:04:14.711Z,101326.96
2019-02-04T03:06:59.986Z,101322.91
2019-02-04T03:09:45.574Z,101322.91
2019-02-04T03:12:30.925Z,101326.48
2019-02-04T03:15:16.228Z,101336.25
2019-02-04T03:18:01.529Z,101334.81
2019-02-04T03:20:46.856Z,101332.34
2019-02-04T03:23:32.266Z,101332.34
2019-02-04T03:26:18.174Z,101336.72
2019-02-04T03:29:03.558Z,101339.81
2019-02-04T03:31:48.916Z,101349.12
2019-02-04T03:34:34.238Z,101346.75
2019-02-04T03:37:19.830Z,101341.00
2019-02-04T03:40:05.678Z,101341.00
2019-02-04T03:42:51.574Z,101334.17
2019-02-04T03:45:37.677Z,101333.38
2019-02-04T03:48:23.554Z,101337.03
2019-02-04T03:51:08.918Z,101332.66
2019-02-04T03:53:54.391Z,101339.10
2019-02-04T03:56:39.667Z,101344.11
2019-02-04T03:59:25.148Z,101339.98
2019-02-04T04:02:10.635Z,101339.98
2019-02-04T04:04:56.031Z,101348.34
2019-02-04T04:07:41.426Z,101348.89
2019-02-04T04:10:26.826Z,101352.20
2019-02-04T04:13:12.130Z,101353.66
2019-02-04T04:15:58.089Z,101353.66
2019-02-04T04:18:43.462Z,101353.47
2019-02-04T04:21:28.881Z,101348.73
2019-02-04T04:24:14.286Z,101358.66
2019-02-04T04:26:59.631Z,101358.66
2019-02-04T04:29:45.458Z,101356.59
2019-02-04T04:32:31.103Z,101354.60
2019-02-04T04:35:16.492Z,101354.36
2019-02-04T04:38:02.394Z,101349.68
2019-02-04T04:40:47.754Z,101358.10
2019-02-04T04:43:33.663Z,101352.85
2019-02-04T04:46:19.259Z,101352.85
2019-02-04T04:49:04.707Z,101354.29
2019-02-04T04:51:50.139Z,101344.20
2019-02-04T04:54:35.551Z,101341.34
2019-02-04T04:57:20.798Z,101339.64
2019-02-04T05:00:08.531Z,101339.64
2019-02-04T05:02:54.131Z,101340.23
2019-02-04T05:05:39.874Z,101329.71
2019-02-04T05:08:25.857Z,101322.08
2019-02-04T05:11:11.267Z,101336.95
2019-02-04T05:13:56.750Z,101336.95
2019-02-04T05:16:42.585Z,101336.20
2019-02-04T05:19:27.936Z,101334.64
2019-02-04T05:22:13.475Z,101337.18
2019-02-04T05:25:00.209Z,101331.94
2019-02-04T05:27:45.693Z,101333.57
2019-02-04T05:30:31.063Z,101328.64
2019-02-04T05:33:16.529Z,101328.64
2019-02-04T05:36:01.885Z,101324.42
2019-02-04T05:38:47.455Z,101324.42
2019-02-04T05:41:33.377Z,101330.86
2019-02-04T05:44:18.758Z,101330.95
2019-02-04T05:47:05.329Z,101330.31
2019-02-04T05:49:50.729Z,101330.31
2019-02-04T05:52:36.041Z,101330.08
2019-02-04T05:55:21.883Z,101330.08
2019-02-04T05:58:07.153Z,101339.38
2019-02-04T06:00:52.614Z,101339.38
2019-02-04T06:03:38.362Z,101345.70
2019-02-04T06:06:23.673Z,101340.16
2019-02-04T06:09:09.025Z,101353.05
2019-02-04T06:11:54.816Z,101348.75
2019-02-04T06:14:40.151Z,101348.75
2019-02-04T06:17:26.055Z,101342.71
2019-02-04T06:20:13.937Z,101351.97
2019-02-04T06:22:59.447Z,101349.34
2019-02-04T06:25:44.780Z,101350.62
2019-02-04T06:28:30.203Z,101349.87
2019-02-04T06:31:16.192Z,101351.53
2019-02-04T06:34:01.584Z,101351.53
2019-02-04T06:36:47.021Z,101349.23
2019-02-04T06:39:32.376Z,101349.23
2019-02-04T06:42:17.716Z,101358.77
2019-02-04T06:45:05.436Z,101352.02
2019-02-04T06:47:51.947Z,101352.02
2019-02-04T06:50:37.932Z,101360.20
2019-02-04T06:53:23.495Z,101359.20
2019-02-04T06:56:08.904Z,101353.45
2019-02-04T06:58:54.296Z,101353.45
2019-02-04T07:01:39.656Z,101351.25
2019-02-04T07:04:26.676Z,101351.25
2019-02-04T07:07:15.082Z,101354.75
2019-02-04T07:10:00.334Z,101354.75
2019-02-04T07:12:45.748Z,101349.27
2019-02-04T07:15:31.124Z,101349.27
2019-02-04T07:18:17.029Z,101354.08
2019-02-04T07:21:02.369Z,101354.08
2019-02-04T07:23:47.809Z,101347.09
2019-02-04T07:26:33.130Z,101349.06
2019-02-04T07:29:18.500Z,101350.34
2019-02-04T07:32:04.275Z,101343.46
2019-02-04T07:34:49.760Z,101345.67
2019-02-04T07:37:35.045Z,101344.48
2019-02-04T07:40:22.824Z,101344.48
2019-02-04T07:43:08.556Z,101345.78
2019-02-04T07:45:53.944Z,101341.32
2019-02-04T07:48:40.317Z,101346.04
2019-02-04T07:51:25.960Z,101337.41
2019-02-04T07:54:11.737Z,101346.66
2019-02-04T07:56:57.270Z,101342.22
2019-02-04T07:59:42.663Z,101348.92
2019-02-04T08:02:28.160Z,101340.81
2019-02-04T08:05:13.973Z,101335.47
2019-02-04T08:07:59.384Z,101328.22
2019-02-04T08:10:44.828Z,101328.44
2019-02-04T08:13:30.240Z,101323.48
2019-02-04T08:16:15.784Z,101321.59
2019-02-04T08:19:01.767Z,101310.03
2019-02-04T08:21:47.105Z,101326.59
2019-02-04T08:24:32.795Z,101325.51
2019-02-04T08:27:18.405Z,101328.59
2019-02-04T08:30:07.220Z,101319.62
2019-02-04T08:32:52.927Z,101319.62
2019-02-04T08:35:39.757Z,101325.94
2019-02-04T08:38:25.357Z,101330.27
2019-02-04T08:41:10.827Z,101335.47
2019-02-04T08:43:56.225Z,101339.39
2019-02-04T08:46:42.212Z,101345.75
2019-02-04T08:49:27.827Z,101340.06
2019-02-04T08:52:13.154Z,101340.06
2019-02-04T08:54:58.477Z,101341.72
2019-02-04T08:57:44.458Z,101339.20
2019-02-04T09:00:30.613Z,101335.95
2019-02-04T09:03:16.003Z,101329.64
2019-02-04T09:06:01.363Z,101330.44
2019-02-04T09:08:46.725Z,101328.37
2019-02-04T09:11:32.048Z,101337.59
2019-02-04T09:14:17.955Z,101326.36
2019-02-04T09:17:03.296Z,101332.81
2019-02-04T09:19:48.727Z,101336.38
2019-02-04T09:22:34.030Z,101330.05
2019-02-04T09:25:19.858Z,101332.80
2019-02-04T09:28:06.005Z,101328.45
2019-02-04T09:30:51.420Z,101326.27
2019-02-04T09:33:36.850Z,101324.44
2019-02-04T09:36:22.198Z,101319.41
2019-02-04T09:39:09.205Z,101313.62
2019-02-04T09:41:55.298Z,101303.46
2019-02-04T09:44:40.547Z,101297.77
2019-02-04T09:47:25.964Z,101295.03
2019-02-04T09:50:21.437Z,101292.20
2019-02-04T09:53:02.021Z,101287.16
2019-02-04T09:55:47.356Z,101294.98
2019-02-04T09:58:32.898Z,101290.97
2019-02-04T10:01:18.233Z,101293.50
2019-02-04T10:04:04.188Z,101289.74
2019-02-04T10:06:49.692Z,101280.36
2019-02-04T10:09:35.643Z,101284.20
2019-02-04T10:12:21.669Z,101274.87
2019-02-04T10:15:11.173Z,101277.57
2019-02-04T10:17:56.544Z,101269.90
2019-02-04T10:20:42.015Z,101279.09
2019-02-04T10:23:27.796Z,101280.70
2019-02-04T10:26:13.230Z,101274.03
2019-02-04T10:28:59.043Z,101274.27
2019-02-04T10:31:44.601Z,101276.47
2019-02-04T10:34:30.264Z,101276.37
2019-02-04T10:37:15.748Z,101270.31
2019-02-04T10:40:01.082Z,101267.63
2019-02-04T10:42:46.723Z,101269.14
2019-02-04T10:45:32.338Z,101269.38
2019-02-04T10:48:17.902Z,101271.84
2019-02-04T10:51:03.904Z,101269.80
2019-02-04T10:53:49.838Z,101268.06
2019-02-04T10:56:35.569Z,101268.73
2019-02-04T10:59:21.250Z,101266.95
2019-02-04T11:02:06.988Z,101265.38
2019-02-04T11:04:52.261Z,101259.53
2019-02-04T11:07:37.585Z,101260.43
2019-02-04T11:10:30.598Z,101257.38
2019-02-04T11:13:17.957Z,101255.88
2019-02-04T11:16:03.828Z,101252.80
2019-02-04T11:18:49.444Z,101254.09
2019-02-04T11:21:34.773Z,101252.69
2019-02-04T11:24:20.095Z,101250.00
2019-02-04T11:27:05.740Z,101251.01
2019-02-04T11:29:51.328Z,101256.45
2019-02-04T11:32:36.767Z,101251.58
2019-02-04T11:35:22.146Z,101246.33
2019-02-04T11:38:07.637Z,101246.25
2019-02-04T11:40:59.056Z,101245.48
2019-02-04T11:43:51.998Z,101235.81
2019-02-04T11:46:38.125Z,101230.55
2019-02-04T11:49:23.890Z,101228.71
2019-02-04T11:52:09.746Z,101220.80
2019-02-04T11:54:55.393Z,101224.91
2019-02-04T11:57:40.760Z,101224.97
2019-02-04T12:07:01.044Z,101230.14
2019-02-04T12:09:46.418Z,101234.13
2019-02-04T12:12:31.764Z,101228.13
2019-02-04T12:15:18.553Z,101227.67
2019-02-04T12:18:04.401Z,101229.47
2019-02-04T12:20:50.044Z,101223.93
2019-02-04T12:23:35.956Z,101219.28
2019-02-04T12:26:21.808Z,101214.76
2019-02-04T12:29:07.300Z,101213.30
2019-02-04T12:31:52.603Z,101213.53
2019-02-04T12:34:38.020Z,101209.47
2019-02-04T12:37:24.081Z,101207.72
2019-02-04T12:40:10.187Z,101206.57
2019-02-04T12:42:55.638Z,101204.05
2019-02-04T12:45:41.830Z,101206.91
2019-02-04T12:48:27.149Z,101203.63
2019-02-04T12:51:13.104Z,101202.59
2019-02-04T12:53:58.540Z,101199.13
2019-02-04T12:56:43.936Z,101192.80
2019-02-04T12:59:29.291Z,101193.80
2019-02-04T13:02:14.676Z,101190.80
2019-02-04T13:05:00.206Z,101185.39
2019-02-04T13:07:45.494Z,101189.57
2019-02-04T13:10:31.134Z,101180.69
2019-02-04T13:13:19.573Z,101180.09
2019-02-04T13:16:05.281Z,101178.82
2019-02-04T13:18:50.600Z,101174.20
2019-02-04T13:21:45.057Z,101168.05
2019-02-04T13:24:23.984Z,101173.05
2019-02-04T13:27:09.468Z,101172.53
2019-02-04T13:29:54.888Z,101168.68
2019-02-04T13:32:40.152Z,101164.89
2019-02-04T13:35:25.724Z,101170.26
2019-02-04T13:38:11.761Z,101169.97
2019-02-04T13:41:07.499Z,101164.66
2019-02-04T13:43:45.131Z,101167.16
2019-02-04T13:46:30.624Z,101160.05
2019-02-04T13:49:16.088Z,101153.17
2019-02-04T13:52:01.468Z,101150.61
2019-02-04T13:54:46.971Z,101154.86
2019-02-04T13:57:32.259Z,101150.35
2019-02-04T14:00:17.987Z,101143.34
2019-02-04T14:03:04.142Z,101151.53
2019-02-04T14:05:52.127Z,101146.41
2019-02-04T14:08:40.697Z,101145.70
2019-02-04T14:11:26.734Z,101144.16
2019-02-04T14:14:12.182Z,101148.87
2019-02-04T14:16:57.468Z,101142.66
2019-02-04T14:19:42.930Z,101141.75
2019-02-04T14:22:28.208Z,101143.97
2019-02-04T14:25:17.238Z,101144.94
2019-02-04T14:28:03.630Z,101139.66
2019-02-04T14:30:50.378Z,101138.08
2019-02-04T14:33:35.793Z,101135.37
2019-02-04T14:36:21.167Z,101127.98
2019-02-04T14:39:11.323Z,101129.41
2019-02-04T14:41:56.957Z,101125.42
2019-02-04T14:45:39.519Z,101127.11
2019-02-04T14:48:59.934Z,101122.09
2019-02-04T14:51:57.566Z,101116.31
2019-02-04T14:55:35.114Z,101115.48
2019-02-04T14:58:35.270Z,101109.16
2019-02-04T15:02:04.329Z,101104.49
2019-02-04T15:05:23.243Z,101104.18
2019-02-04T15:08:34.297Z,101103.09
2019-02-04T15:11:41.556Z,101098.19
2019-02-04T15:15:04.303Z,101094.34
2019-02-04T15:18:41.619Z,101100.75
2019-02-04T15:22:10.291Z,101090.72
2019-02-04T15:25:17.431Z,101093.38
2019-02-04T15:28:34.972Z,101084.68
2019-02-04T15:31:53.359Z,101080.53
2019-02-04T15:35:04.819Z,101084.10
2019-02-04T15:38:22.697Z,101080.93
2019-02-04T15:41:46.458Z,101079.95
2019-02-04T15:45:07.004Z,101077.41
2019-02-04T15:48:04.363Z,101072.64
2019-02-04T15:51:15.620Z,101079.91
2019-02-04T15:54:04.570Z,101080.09
2019-02-04T15:56:51.686Z,101068.94
2019-02-04T15:59:37.284Z,101076.43
2019-02-04T16:02:22.862Z,101074.64
2019-02-04T16:05:09.028Z,101069.61
2019-02-04T16:07:55.114Z,101068.53
2019-02-04T16:10:40.596Z,101067.20
2019-02-04T16:13:25.799Z,101065.82
2019-02-04T16:19:18.703Z,101058.70
2019-02-04T16:22:04.995Z,101065.03
2019-02-04T16:24:53.405Z,101065.20
2019-02-04T16:27:39.742Z,101060.34
2019-02-04T16:30:25.588Z,101060.33
2019-02-04T16:33:11.935Z,101055.23
2019-02-04T16:35:58.140Z,101055.79
2019-02-04T16:38:50.512Z,101055.79
2019-02-04T16:41:36.533Z,101051.49
2019-02-04T16:44:22.556Z,101048.81
2019-02-04T16:47:08.938Z,101050.45
2019-02-04T16:49:57.206Z,101045.92
2019-02-04T16:52:48.103Z,101045.74
2019-02-04T16:55:37.385Z,101040.17
2019-02-04T16:58:23.299Z,101053.23
2019-02-04T17:01:09.247Z,101048.58
2019-02-04T17:03:55.480Z,101056.25
2019-02-04T17:06:41.647Z,101059.27
2019-02-04T17:09:34.035Z,101054.75
2019-02-04T17:12:20.745Z,101053.52
2019-02-04T17:15:07.007Z,101057.84
2019-02-04T17:17:55.620Z,101059.58
2019-02-04T17:20:44.858Z,101061.42
2019-02-04T17:23:30.660Z,101068.53
2019-02-04T17:26:16.777Z,101064.74
2019-02-04T17:29:03.605Z,101065.20
2019-02-04T17:31:52.709Z,101059.22
2019-02-04T17:34:39.023Z,101067.02
2019-02-04T17:37:25.516Z,101061.42
2019-02-04T17:40:16.232Z,101054.92
2019-02-04T17:43:04.101Z,101047.55
2019-02-04T17:46:01.063Z,101054.00
2019-02-04T17:48:51.685Z,101043.65
2019-02-04T17:51:37.868Z,101038.94
2019-02-04T17:54:23.705Z,101036.17
2019-02-04T17:57:09.862Z,101037.15
2019-02-04T17:59:56.109Z,101040.34
2019-02-04T18:02:44.423Z,101049.24
2019-02-04T18:05:30.616Z,101041.14
2019-02-04T18:08:19.401Z,101046.73
2019-02-04T18:11:05.493Z,101048.81
2019-02-04T18:13:51.863Z,101054.34
2019-02-04T18:16:39.952Z,101051.03
2019-02-04T18:19:26.770Z,101045.38
2019-02-04T18:22:14.505Z,101040.12
2019-02-04T18:25:00.469Z,101036.69
2019-02-04T18:27:46.558Z,101040.80
2019-02-04T18:30:32.953Z,101035.52
2019-02-04T18:33:19.500Z,101038.84
2019-02-04T18:36:05.734Z,101040.63
2019-02-04T18:38:52.170Z,101039.81
2019-02-04T18:41:38.361Z,101037.15
2019-02-04T18:44:24.523Z,101040.42
2019-02-04T18:47:11.264Z,101040.94
2019-02-04T18:49:57.413Z,101039.70
2019-02-04T18:52:43.874Z,101041.55
2019-02-04T18:55:31.709Z,101035.52
2019-02-04T18:58:17.580Z,101037.15
2019-02-04T19:01:04.049Z,101034.18
2019-02-04T19:03:52.309Z,101022.78
2019-02-04T19:06:47.816Z,101020.17
2019-02-04T19:09:32.251Z,101027.08
2019-02-04T19:12:20.652Z,101018.24
2019-02-04T19:15:11.616Z,101025.05
2019-02-04T19:18:01.871Z,101026.66
2019-02-04T19:20:55.557Z,101030.63
2019-02-04T19:23:49.816Z,101018.14
2019-02-04T19:26:36.651Z,101026.20
2019-02-04T19:29:22.999Z,101021.67
2019-02-04T19:32:09.384Z,101022.08
2019-02-04T19:34:55.580Z,101020.68
2019-02-04T19:37:41.867Z,101023.41
2019-02-04T19:40:28.787Z,101028.06
2019-02-04T19:43:14.608Z,101029.95
2019-02-04T19:46:01.252Z,101026.94
2019-02-04T19:48:47.367Z,101029.95
2019-02-04T19:51:35.849Z,101035.38
2019-02-04T19:54:24.686Z,101031.08
2019-02-04T19:57:11.322Z,101034.41
2019-02-04T19:59:57.489Z,101034.20
2019-02-04T20:02:43.898Z,101027.50
2019-02-04T20:05:30.622Z,101016.84
2019-02-04T20:08:16.934Z,101016.04
2019-02-04T20:11:04.755Z,101012.14
2019-02-04T20:13:53.848Z,101009.58
2019-02-04T20:16:40.484Z,101018.07
2019-02-04T20:19:26.564Z,101021.45
2019-02-04T20:22:12.539Z,101016.43
2019-02-04T20:25:01.148Z,101021.09
2019-02-04T20:27:47.553Z,101020.47
2019-02-04T20:30:45.892Z,101029.89
2019-02-04T20:33:29.427Z,101033.83
2019-02-04T20:36:15.400Z,101035.92
2019-02-04T20:39:04.191Z,101039.20
2019-02-04T20:41:50.631Z,101047.79
2019-02-04T20:44:38.284Z,101051.73
2019-02-04T20:47:26.073Z,101055.98
2019-02-04T20:50:23.972Z,101065.87
2019-02-04T20:53:12.551Z,101065.28
2019-02-04T20:55:59.164Z,101060.12
2019-02-04T20:58:45.294Z,101064.00
2019-02-04T21:01:31.303Z,101069.12
2019-02-04T21:04:17.429Z,101070.75
2019-02-04T21:07:03.675Z,101072.60
2019-02-04T21:09:51.742Z,101072.91
2019-02-04T21:12:37.933Z,101068.04
2019-02-04T21:15:24.643Z,101072.55
2019-02-04T21:18:10.928Z,101070.97
2019-02-04T21:20:57.431Z,101071.58
2019-02-04T21:23:43.282Z,101069.94
2019-02-04T21:26:31.818Z,101065.64
2019-02-04T21:29:19.300Z,101070.50
2019-02-04T21:32:05.513Z,101072.09
2019-02-04T21:34:51.659Z,101079.86
2019-02-04T21:37:37.626Z,101076.69
2019-02-04T21:40:23.614Z,101080.63
2019-02-04T21:43:11.925Z,101081.91
2019-02-04T21:45:58.167Z,101077.45
2019-02-04T21:48:44.170Z,101069.58
2019-02-04T21:51:30.403Z,101065.39
2019-02-04T21:54:19.094Z,101065.03
2019-02-04T21:57:08.091Z,101070.81
2019-02-04T21:59:54.007Z,101070.14
2019-02-04T22:02:39.913Z,101079.17
2019-02-04T22:05:27.355Z,101082.94
2019-02-04T22:08:13.302Z,101075.62
2019-02-04T22:11:07.036Z,101068.33
2019-02-04T22:13:53.379Z,101065.52
2019-02-04T22:16:42.338Z,101072.01
2019-02-04T22:19:28.482Z,101073.70
2019-02-04T22:22:15.022Z,101081.09
2019-02-04T22:25:00.907Z,101083.77
2019-02-04T22:27:47.973Z,101084.39
2019-02-04T22:30:34.382Z,101075.80
2019-02-04T22:33:20.482Z,101078.97
2019-02-04T22:36:07.214Z,101074.41
2019-02-04T22:41:55.654Z,101084.00
2019-02-04T22:44:43.057Z,101082.94
2019-02-04T22:47:29.722Z,101083.36
2019-02-04T22:50:18.278Z,101075.33
2019-02-04T22:56:08.037Z,101071.95
2019-02-04T23:01:53.720Z,101062.95
2019-02-04T23:04:42.038Z,101064.69
2019-02-04T23:07:30.343Z,101064.23
2019-02-04T23:10:16.318Z,101070.32
2019-02-04T23:13:04.694Z,101073.34
2019-02-04T23:15:50.682Z,101069.34
2019-02-04T23:18:36.589Z,101081.22
2019-02-04T23:21:22.837Z,101089.86
2019-02-04T23:24:09.364Z,101082.50
2019-02-04T23:26:55.237Z,101087.25
2019-02-04T23:29:41.468Z,101085.05
2019-02-04T23:32:27.286Z,101093.52
2019-02-04T23:35:13.431Z,101087.54
2019-02-04T23:37:59.936Z,101088.81
2019-02-04T23:40:46.252Z,101084.11
2019-02-04T23:43:33.750Z,101080.27
2019-02-04T23:46:21.123Z,101076.38
2019-02-04T23:49:07.069Z,101088.30
2019-02-04T23:51:52.990Z,101085.74
2019-02-04T23:54:38.992Z,101086.34
2019-02-04T23:57:25.494Z,101077.80
